Kapaa, HI

2:31 AM HST on October 02, 2014 (GMT -1000)
WAILUA HOMESTEADS | Change Station
CLOSE
Current Station
Personal Weather Station
Location: Kapaa, HI
Elevation: 361 ft
Nearby Weather Stations
Active Advisory: High Surf Advisory

Elev 361 ft 22.07 °N, 159.36 °W | Updated 1 minute ago

Partly Cloudy
Partly Cloudy
71.7 °F
Feels Like 71.7 °F
N
0.0
Wind Variable Wind from SW
Gusts 0.0 mph

Today
High -- | Low -- °F
--% Chance of Precip.
Yesterday
High -- | Low -- °F
Precip. -- in
6:29 AM 6:23 PM
First Quarter, 58% visible
Pressure 29.94 in
Visibility 10.0 miles
Clouds Few 2100 ft
Dew Point 71 °F
Humidity 97%
Rainfall 0.00 in
Snow Depth Not available.
UV 0.0 out of 12
Pollen Not available.
Air Quality Not available.
Flu Activity Not available.
METAR PHLI 021153Z 28007KT 10SM FEW021 24/22 A2994 RMK AO2 SLP136 60000 T02390217 10256 20239 58008 $

More Conditions Fewer Conditions

Pressure 29.94 in
Visibility 10.0 miles
Clouds Few 2100 ft
Dew Point 71 °F
Humidity 97%
Rainfall 0.00 in
Snow Depth Not available.
UV 0.0 out of 12
Pollen Not available.
Air Quality Not available.
Flu Activity Not available.
METAR PHLI 021153Z 28007KT 10SM FEW021 24/22 A2994 RMK AO2 SLP136 60000 T02390217 10256 20239 58008 $

More Conditions Fewer Conditions

10-Day Weather Forecast

Almanac

Astronomy

Oct. 02, 2014 Rise Set
Actual Time 6:29 AM HST 6:23 PM HST
Civil Twilight 6:06 AM HST 6:46 PM HST
Nautical Twilight 5:40 AM HST 7:12 PM HST
Astronomical Twilight 5:15 AM HST 7:37 PM HST
Moon 2:03 PM HST 12:36 AM HST
Length of Visible Light 12h 39m
Length of Day
11h 54m
Tomorrow will be 1m 14s shorter.
First Quarter, 58% of the Moon is Illuminated
Today
First Quarter
Oct 8
Full
Oct 15
Last Quarter
Oct 23
New
Oct 30
First Quarter

Today's Extremes

State Highs State Lows

Community

WunderPhotos

Upload Photos

1,758,223 photos uploaded!

WunderBlogs® & News

Nearby

Snow Depth

Station Depth Elevation
No new snow has been reported.

Earthquake Activity

City Distance Mag. Time & Date
No recent earthquake activity has been reported nearby.
Minimum magnitude displayed is 2.5.

Coastal Water Temperatures

Place Temperature
No Stations Reporting

Nearby Weather Stations